Nearby METAR Reports

 

K9MN - St Mary Hospital, Minnesota, USA
Distance from station: SW 3mi, 4km
Updated: 11/17/2018 9:55am
Overcast
Overcast
 Wind from NNE
Wind: NNE 7 mph , 11 km/h
Temperature: 23°F , -5°C
Wind Chill: 15°F , -9°C
Dew Point: 16°F , -9°C
Humidity: 74%
Barometer: 30.41 inHg , 1029.8 hPa
Clouds: Overcast
Visibility: 10 miles , 16 km
Cloud details: Overcast 1900 ft
2018/11/17 15:55 K9MN 171555Z AUTO 02006KT 10SM OVC019 M05/M09 A3041 RMK AO1 T10521094
KRST - Rochester, Minnesota, USA
Distance from station: SSW 10mi, 16km
Updated: 11/17/2018 9:54am
Overcast
Overcast
 Wind from NNE
Wind: NNE 16 mph , 26 km/h
Temperature: 21°F , -6°C
Wind Chill: 7°F , -14°C
Dew Point: 16°F , -9°C
Humidity: 80%
Barometer: 30.39 inHg , 1029.1 hPa
Clouds: Overcast
Visibility: 10 miles , 16 km
Cloud details: Overcast 1900 ft
2018/11/17 15:54 KRST 171554Z 02014KT 10SM OVC019 M06/M09 A3039 RMK AO2 SLP313 T10611094
 
KTOB - Dodge Center, Minnesota, USA
Distance from station: W 19mi, 30km
Updated: 11/17/2018 9:55am
Overcast
Overcast
 Wind from N
Wind: N 12 mph , 19 km/h
Temperature: 19°F , -7°C
Wind Chill: 6°F , -14°C
Dew Point: 12°F , -11°C
Humidity: 73%
Barometer: 30.40 inHg , 1029.5 hPa
Clouds: Overcast
Visibility: 10 miles , 16 km
Cloud details: Overcast 2100 ft
2018/11/17 15:55 KTOB 171555Z AUTO 36010KT 10SM OVC021 M07/M11 A3040 RMK AO2
KFKA - Preston, Minnesota, USA
Distance from station: SSE 28mi, 45km
Updated: 11/17/2018 9:55am
Mostly cloudy
Mostly cloudy
 Wind from N
Wind: N 10 mph , 17 km/h
Temperature: 23°F , -5°C
Wind Chill: 13°F , -11°C
Dew Point: 16°F , -9°C
Humidity: 74%
Barometer: 30.38 inHg , 1028.8 hPa
Clouds: Mostly cloudy
Visibility: 10 miles , 16 km
Cloud details: Mostly cloudy 2200 ft
2018/11/17 15:55 KFKA 171555Z AUTO 01009KT 10SM BKN022 M05/M09 A3038 RMK AO2 T10521091
 
KAUM - Austin Muni, Minnesota, USA
Distance from station: SW 35mi, 57km
Updated: 11/17/2018 9:55am
Overcast
Overcast
 Wind from N
Wind: N 13 mph , 20 km/h, Gust: 18 mph , 30 km/h
Temperature: 21°F , -6°C
Wind Chill: 8°F , -13°C
Dew Point: 16°F , -9°C
Humidity: 80%
Barometer: 30.39 inHg , 1029.1 hPa
Clouds: Overcast
Visibility: 10 miles , 16 km
Cloud details: Overcast 2200 ft
2018/11/17 15:55 KAUM 171555Z AUTO 01011G16KT 10SM OVC022 M06/M09 A3039 RMK AO2
KONA - Winona Muni, Minnesota, USA
Distance from station: E 37mi, 59km
Updated: 11/17/2018 9:55am
Overcast
Overcast
 Wind from N
Wind: N 8 mph , 13 km/h
Temperature: 28°F , -2°C
Wind Chill: 20°F , -7°C
Dew Point: 19°F , -7°C
Humidity: 69%
Barometer: 30.43 inHg , 1030.5 hPa
Clouds: Overcast
Visibility: 10 miles , 16 km
Cloud details: Overcast 2900 ft
2018/11/17 15:55 KONA 171555Z AUTO 35007KT 10SM OVC029 M02/M07 A3043 RMK AO2
 
KRGK - Red Wing, Minnesota, USA
Distance from station: N 38mi, 61km
Updated: 11/17/2018 9:56am
Overcast
Overcast
 Wind from NE
Wind: NE 9 mph , 15 km/h
Temperature: 25°F , -4°C
Wind Chill: 16°F , -9°C
Dew Point: 9°F , -13°C
Humidity: 50%
Barometer: 30.44 inHg , 1030.8 hPa
Clouds: Overcast
Visibility: 10 miles , 16 km
Cloud details: Overcast 2900 ft
2018/11/17 15:56 KRGK 171556Z AUTO 05008KT 10SM OVC029 M04/M13 A3044 RMK AO2
KOWA - Owatonna, Minnesota, USA
Distance from station: W 41mi, 65km
Updated: 11/17/2018 9:55am
Overcast
Overcast
 Wind from NNE
Wind: NNE 13 mph , 20 km/h, Gust: 17 mph , 28 km/h
Temperature: 21°F , -6°C
Wind Chill: 8°F , -13°C
Dew Point: 14°F , -10°C
Humidity: 74%
Barometer: 30.42 inHg , 1030.1 hPa
Clouds: Overcast
Visibility: 10 miles , 16 km
Cloud details: Overcast 2300 ft
2018/11/17 15:55 KOWA 171555Z AUTO 03011G15KT 10SM OVC023 M06/M10 A3042 RMK AO2
 
KSYN - Stanton, Minnesota, USA
Distance from station: NW 42mi, 68km
Updated: 11/17/2018 9:55am
Overcast
Overcast
 Wind from NNE
Wind: NNE 13 mph , 20 km/h
Temperature: 23°F , -5°C
Wind Chill: 11°F , -12°C
Dew Point: 14°F , -10°C
Humidity: 68%
Barometer: 30.43 inHg , 1030.5 hPa
Clouds: Overcast
Visibility: 10 miles , 16 km
Cloud details: Overcast 2400 ft
2018/11/17 15:55 KSYN 171555Z AUTO 03011KT 10SM OVC024 M05/M10 A3043 RMK AO2 T10501098
KFBL - Faribault Muni, Minnesota, USA
Distance from station: WNW 48mi, 77km
Updated: 09/20/2018 6:41pm
NOT Current

 Wind from SSE
Wind: SSE 18 mph , 30 km/h, Gust: 45 mph , 72 km/h
Visibility: 4 miles , 6 km
2018/09/20 23:41 KFBL 202341Z AUTO 15016G39KT 122V182 4SM +VCTSRA SCT010 BKN070 21/21 A2951 RMK AO2 P0008 LTG DSNT ALQDS